Rina Amoretti — IBRR — position and weather

sailwx.info

Track history (hours):
 
Tides and Currents Weather Stations Pressure Air Temp Water Temp Dewpoint Dewpoint Depression Visibility Wind Speed Wind Dir Waves Ship Positions

Rina Amoretti

Last reported at 2016-May-05 22:33 UTC. Time now 2016-May-06 12:58 UTC.
Position N 37°25' E 015°21'.

Length 320 m; draft 6.2 m.

Type: Tanker. MMSI: 247197000.

Date/timePositionNaut miles runAvg speedWind from/ knotsBaromVisibWave heightAir tempDewpointWater temp
2016-May-05 22:33N 37°25' E 015°21'1414.1
2016-May-05 21:34N 37°38' E 015°26'1414.0
2016-May-05 20:34N 37°52' E 015°29'1514.7
2016-May-05 19:33N 38°06' E 015°34'1413.9
2016-May-05 18:34N 38°19' E 015°40'1514.5
2016-May-05 17:33N 38°33' E 015°32'1414.3
2016-May-05 16:34N 38°46' E 015°25'1414.3
2016-May-05 15:33N 38°59' E 015°17'1514.3
2016-May-05 14:28N 39°12' E 015°07'2 0.0
2016-May-04 00:04N 39°14' E 015°06'713.2
2016-May-03 23:32N 39°08' E 015°11'1313.3
2016-May-03 22:33N 38°56' E 015°19'1413.2
2016-May-03 21:32N 38°44' E 015°27'1313.2
2016-May-03 20:33N 38°33' E 015°34'1313.0
2016-May-03 19:34N 38°21' E 015°41'1010.1
2016-May-03 18:34N 38°11' E 015°37'1111.2
2016-May-03 17:33N 38°00' E 015°34'1413.7
2016-May-03 16:33N 37°47' E 015°29'1313.0
2016-May-03 15:33N 37°35' E 015°25'  
2016-May-01 09:12N 37°23' E 015°21'913.7
2016-May-01 08:31N 37°32' E 015°24'1713.5
2016-May-01 07:16N 37°49' E 015°29'1013.6
2016-May-01 06:33N 37°58' E 015°32'1414.3
2016-May-01 05:33N 38°12' E 015°36'8 8.0
2016-May-01 04:33N 38°20' E 015°33'1413.7
2016-May-01 03:33N 38°19' E 015°16'1414.0
2016-May-01 02:33N 38°16' E 014°58'4513.7
2016-Apr-30 23:19N 38°14' E 014°02'1013.1
2016-Apr-30 22:33N 38°11' E 013°49'1414.1
2016-Apr-30 21:33N 38°09' E 013°32'5 5.3
2016-Apr-30 20:33N 38°06' E 013°26'0 0.0
2016-Apr-30 19:33N 38°06' E 013°26'0 0.0
2016-Apr-30 18:33N 38°06' E 013°26'0 0.0
2016-Apr-30 17:33N 38°06' E 013°26'0 0.0
2016-Apr-30 16:33N 38°06' E 013°26'0 0.0
2016-Apr-30 15:33N 38°06' E 013°26'0 0.0
2016-Apr-30 14:33N 38°06' E 013°26'0 0.0
2016-Apr-30 13:33N 38°06' E 013°26'0 0.0
2016-Apr-30 12:33N 38°06' E 013°26'0 0.0
2016-Apr-30 11:33N 38°06' E 013°26'0 0.0
2016-Apr-30 10:33N 38°06' E 013°26'0 0.0
2016-Apr-30 09:30N 38°06' E 013°26'0 0.0
2016-Apr-30 08:33N 38°06' E 013°26'0 0.4
2016-Apr-30 07:33N 38°06' E 013°27'1 0.8
2016-Apr-30 06:32N 38°07' E 013°26'0 0.0
2016-Apr-30 05:32N 38°07' E 013°26'0 0.1
2016-Apr-30 04:32N 38°07' E 013°26'4 4.2
2016-Apr-30 03:33N 38°09' E 013°31'1312.9
2016-Apr-30 02:34N 38°11' E 013°47'1313.2
2016-Apr-30 01:33N 38°13' E 014°03'1513.2
2016-Apr-30 00:25N 38°14' E 014°23'1113.0
2016-Apr-29 23:34N 38°15' E 014°37'1313.3
2016-Apr-29 22:33N 38°16' E 014°54'1313.2
2016-Apr-29 21:33N 38°18' E 015°10'1313.6
2016-Apr-29 20:34N 38°19' E 015°28'1312.7
2016-Apr-29 19:34N 38°17' E 015°43'1211.9
2016-Apr-29 18:33N 38°07' E 015°36'1212.2
2016-Apr-29 17:33N 37°55' E 015°32'1313.1
2016-Apr-29 16:33N 37°42' E 015°28'1413.2
2016-Apr-29 15:32N 37°29' E 015°23'  
Track history (hours):
 
Tides and Currents Weather Stations Pressure Air Temp Water Temp Dewpoint Dewpoint Depression Visibility Wind Speed Wind Dir Waves Ship Positions

Rina Amoretti

Last reported at 2016-May-05 22:33 UTC. Time now 2016-May-06 12:58 UTC.
Position N 37°25' E 015°21'.

Length 320 m; draft 6.2 m.

Type: Tanker. MMSI: 247197000.

Date/timePositionNaut miles runAvg speedWind from/ knotsBaromVisibWave heightAir tempDewpointWater temp
2016-May-05 22:33N 37°25' E 015°21'1414.1
2016-May-05 21:34N 37°38' E 015°26'1414.0
2016-May-05 20:34N 37°52' E 015°29'1514.7
2016-May-05 19:33N 38°06' E 015°34'1413.9
2016-May-05 18:34N 38°19' E 015°40'1514.5
2016-May-05 17:33N 38°33' E 015°32'1414.3
2016-May-05 16:34N 38°46' E 015°25'1414.3
2016-May-05 15:33N 38°59' E 015°17'1514.3
2016-May-05 14:28N 39°12' E 015°07'2 0.0
2016-May-04 00:04N 39°14' E 015°06'713.2
2016-May-03 23:32N 39°08' E 015°11'1313.3
2016-May-03 22:33N 38°56' E 015°19'1413.2
2016-May-03 21:32N 38°44' E 015°27'1313.2
2016-May-03 20:33N 38°33' E 015°34'1313.0
2016-May-03 19:34N 38°21' E 015°41'1010.1
2016-May-03 18:34N 38°11' E 015°37'1111.2
2016-May-03 17:33N 38°00' E 015°34'1413.7
2016-May-03 16:33N 37°47' E 015°29'1313.0
2016-May-03 15:33N 37°35' E 015°25'  
2016-May-01 09:12N 37°23' E 015°21'913.7
2016-May-01 08:31N 37°32' E 015°24'1713.5
2016-May-01 07:16N 37°49' E 015°29'1013.6
2016-May-01 06:33N 37°58' E 015°32'1414.3
2016-May-01 05:33N 38°12' E 015°36'8 8.0
2016-May-01 04:33N 38°20' E 015°33'1413.7
2016-May-01 03:33N 38°19' E 015°16'1414.0
2016-May-01 02:33N 38°16' E 014°58'4513.7
2016-Apr-30 23:19N 38°14' E 014°02'1013.1
2016-Apr-30 22:33N 38°11' E 013°49'1414.1
2016-Apr-30 21:33N 38°09' E 013°32'5 5.3
2016-Apr-30 20:33N 38°06' E 013°26'0 0.0
2016-Apr-30 19:33N 38°06' E 013°26'0 0.0
2016-Apr-30 18:33N 38°06' E 013°26'0 0.0
2016-Apr-30 17:33N 38°06' E 013°26'0 0.0
2016-Apr-30 16:33N 38°06' E 013°26'0 0.0
2016-Apr-30 15:33N 38°06' E 013°26'0 0.0
2016-Apr-30 14:33N 38°06' E 013°26'0 0.0
2016-Apr-30 13:33N 38°06' E 013°26'0 0.0
2016-Apr-30 12:33N 38°06' E 013°26'0 0.0
2016-Apr-30 11:33N 38°06' E 013°26'0 0.0
2016-Apr-30 10:33N 38°06' E 013°26'0 0.0
2016-Apr-30 09:30N 38°06' E 013°26'0 0.0
2016-Apr-30 08:33N 38°06' E 013°26'0 0.4
2016-Apr-30 07:33N 38°06' E 013°27'1 0.8
2016-Apr-30 06:32N 38°07' E 013°26'0 0.0
2016-Apr-30 05:32N 38°07' E 013°26'0 0.1
2016-Apr-30 04:32N 38°07' E 013°26'4 4.2
2016-Apr-30 03:33N 38°09' E 013°31'1312.9
2016-Apr-30 02:34N 38°11' E 013°47'1313.2
2016-Apr-30 01:33N 38°13' E 014°03'1513.2
2016-Apr-30 00:25N 38°14' E 014°23'1113.0
2016-Apr-29 23:34N 38°15' E 014°37'1313.3
2016-Apr-29 22:33N 38°16' E 014°54'1313.2
2016-Apr-29 21:33N 38°18' E 015°10'1313.6
2016-Apr-29 20:34N 38°19' E 015°28'1312.7
2016-Apr-29 19:34N 38°17' E 015°43'1211.9
2016-Apr-29 18:33N 38°07' E 015°36'1212.2
2016-Apr-29 17:33N 37°55' E 015°32'1313.1
2016-Apr-29 16:33N 37°42' E 015°28'1413.2
2016-Apr-29 15:32N 37°29' E 015°23'  

Dump ship's entire track history